createdAt,value
2022-12-11T00:00:52.202Z,-3.09
2022-12-11T00:03:19.475Z,-3.19
2022-12-11T00:05:46.647Z,-3.09
2022-12-11T00:08:14.067Z,-3.06
2022-12-11T00:10:47.870Z,-3.18
2022-12-11T00:13:14.908Z,-3.20
2022-12-11T00:15:43.299Z,-3.23
2022-12-11T00:18:12.725Z,-3.18
2022-12-11T00:20:39.840Z,-3.18
2022-12-11T00:23:06.914Z,-3.17
2022-12-11T00:25:34.064Z,-3.05
2022-12-11T00:28:01.108Z,-3.05
2022-12-11T00:30:28.179Z,-3.19
2022-12-11T00:32:56.581Z,-3.31
2022-12-11T00:35:23.675Z,-3.27
2022-12-11T00:37:50.723Z,-3.25
2022-12-11T00:40:17.924Z,-3.42
2022-12-11T00:42:44.984Z,-3.39
2022-12-11T00:45:12.269Z,-3.33
2022-12-11T00:47:39.530Z,-3.41
2022-12-11T00:50:09.179Z,-3.43
2022-12-11T00:52:36.242Z,-3.47
2022-12-11T00:55:03.680Z,-3.50
2022-12-11T00:57:30.736Z,-3.53
2022-12-11T00:59:57.803Z,-3.52
2022-12-11T01:02:24.897Z,-3.51
2022-12-11T01:04:51.994Z,-3.50
2022-12-11T01:07:20.402Z,-3.45
2022-12-11T01:09:47.706Z,-3.53
2022-12-11T01:12:14.799Z,-3.57
2022-12-11T01:14:41.870Z,-3.50
2022-12-11T01:17:08.929Z,-3.50
2022-12-11T01:19:36.011Z,-3.48
2022-12-11T01:22:03.070Z,-3.53
2022-12-11T01:24:31.808Z,-3.40
2022-12-11T01:26:58.869Z,-3.54
2022-12-11T01:29:25.926Z,-3.48
2022-12-11T01:31:52.982Z,-3.42
2022-12-11T01:34:20.087Z,-3.50
2022-12-11T01:36:47.142Z,-3.53
2022-12-11T01:39:14.267Z,-3.56
2022-12-11T01:41:42.683Z,-3.58
2022-12-11T01:44:43.156Z,-3.63
2022-12-11T01:47:10.357Z,-3.62
2022-12-11T01:49:39.064Z,-3.64
2022-12-11T01:52:09.655Z,-3.63
2022-12-11T01:54:37.135Z,-3.65
2022-12-11T01:57:08.440Z,-3.68
2022-12-11T01:59:38.408Z,-3.65
2022-12-11T02:02:10.962Z,-3.65
2022-12-11T02:04:39.990Z,-3.58
2022-12-11T02:07:07.188Z,-3.54
2022-12-11T02:09:37.201Z,-3.51
2022-12-11T02:12:15.231Z,-3.51
2022-12-11T02:14:49.425Z,-3.57
2022-12-11T02:17:21.770Z,-3.55
2022-12-11T02:19:56.820Z,-3.54
2022-12-11T02:22:33.560Z,-3.54
2022-12-11T02:25:12.658Z,-3.47
2022-12-11T02:27:45.853Z,-3.49
2022-12-11T02:30:15.975Z,-3.58
2022-12-11T02:32:47.600Z,-3.48
2022-12-11T02:35:19.550Z,-3.34
2022-12-11T02:37:51.021Z,-3.33
2022-12-11T02:40:24.632Z,-3.45
2022-12-11T02:42:53.982Z,-3.50
2022-12-11T02:45:24.217Z,-3.50
2022-12-11T02:47:52.637Z,-3.45
2022-12-11T02:50:22.207Z,-3.36
2022-12-11T02:52:53.150Z,-3.43
2022-12-11T02:55:20.785Z,-3.51
2022-12-11T02:57:51.365Z,-3.61
2022-12-11T03:00:19.114Z,-3.48
2022-12-11T03:02:47.790Z,-3.43
2022-12-11T03:05:15.868Z,-3.31
2022-12-11T03:07:44.310Z,-3.32
2022-12-11T03:10:15.347Z,-3.45
2022-12-11T03:12:49.210Z,-3.46
2022-12-11T03:15:21.777Z,-3.40
2022-12-11T03:18:03.707Z,-3.45
2022-12-11T03:20:37.615Z,-3.48
2022-12-11T03:23:12.559Z,-3.60
2022-12-11T03:25:50.555Z,-3.50
2022-12-11T03:28:22.182Z,-3.50
2022-12-11T03:30:53.371Z,-3.58
2022-12-11T03:33:23.928Z,-3.46
2022-12-11T03:35:55.072Z,-3.55
2022-12-11T03:38:27.740Z,-3.55
2022-12-11T03:40:58.275Z,-3.62
2022-12-11T03:43:28.582Z,-3.61
2022-12-11T03:45:57.000Z,-3.68
2022-12-11T03:48:30.562Z,-3.61
2022-12-11T03:50:59.190Z,-3.61
2022-12-11T03:53:27.338Z,-3.35
2022-12-11T03:55:56.403Z,-3.33
2022-12-11T03:58:23.847Z,-3.42
2022-12-11T04:00:50.918Z,-3.42
2022-12-11T04:03:18.053Z,-3.46
2022-12-11T04:05:48.529Z,-3.50
2022-12-11T04:08:16.695Z,-3.60
2022-12-11T04:10:44.580Z,-3.49
2022-12-11T04:13:11.873Z,-3.33
2022-12-11T04:15:39.853Z,-3.42
2022-12-11T04:18:07.605Z,-3.49
2022-12-11T04:20:34.728Z,-3.49
2022-12-11T04:23:05.179Z,-3.49
2022-12-11T04:25:32.244Z,-3.50
2022-12-11T04:27:59.322Z,-3.45
2022-12-11T04:30:30.889Z,-3.42
2022-12-11T04:33:01.276Z,-3.51
2022-12-11T04:35:28.493Z,-3.47
2022-12-11T04:37:55.597Z,-3.51
2022-12-11T04:40:24.470Z,-3.51
2022-12-11T04:42:51.652Z,-3.50
2022-12-11T04:45:18.805Z,-3.43
2022-12-11T04:47:45.881Z,-3.36
2022-12-11T04:50:14.905Z,-3.27
2022-12-11T04:52:42.110Z,-3.32
2022-12-11T04:55:10.292Z,-3.41
2022-12-11T04:57:39.374Z,-3.45
2022-12-11T05:00:09.608Z,-3.34
2022-12-11T05:02:37.521Z,-3.57
2022-12-11T05:05:05.924Z,-3.69
2022-12-11T05:07:33.234Z,-3.69
2022-12-11T05:10:00.326Z,-3.84
2022-12-11T05:12:27.463Z,-3.94
2022-12-11T05:14:55.977Z,-3.86
2022-12-11T05:17:23.196Z,-3.94
2022-12-11T05:19:51.455Z,-3.85
2022-12-11T05:22:18.989Z,-3.89
2022-12-11T05:24:46.060Z,-3.90
2022-12-11T05:27:13.135Z,-4.01
2022-12-11T05:29:40.465Z,-4.15
2022-12-11T05:32:08.885Z,-4.22
2022-12-11T05:34:35.998Z,-4.11
2022-12-11T05:37:03.065Z,-4.15
2022-12-11T05:39:30.178Z,-4.09
2022-12-11T05:41:57.246Z,-4.06
2022-12-11T05:44:24.543Z,-4.05
2022-12-11T05:46:51.619Z,-4.09
2022-12-11T05:49:24.637Z,-4.17
2022-12-11T05:51:54.490Z,-4.12
2022-12-11T05:54:21.576Z,-4.15
2022-12-11T05:56:49.888Z,-4.05
2022-12-11T05:59:17.436Z,-4.20
2022-12-11T06:01:44.631Z,-4.24
2022-12-11T06:04:12.333Z,-4.27
2022-12-11T06:06:41.277Z,-4.19
2022-12-11T06:09:08.363Z,-4.11
2022-12-11T06:11:35.916Z,-4.31
2022-12-11T06:14:04.135Z,-4.24
2022-12-11T06:16:31.486Z,-4.25
2022-12-11T06:18:58.909Z,-4.24
2022-12-11T06:21:27.901Z,-4.16
2022-12-11T06:23:58.330Z,-4.28
2022-12-11T06:26:26.132Z,-4.40
2022-12-11T06:28:53.813Z,-4.37
2022-12-11T06:31:21.283Z,-4.36
2022-12-11T06:33:48.535Z,-4.52
2022-12-11T06:36:18.552Z,-4.41
2022-12-11T06:38:45.994Z,-4.39
2022-12-11T06:41:15.050Z,-4.40
2022-12-11T06:43:42.937Z,-4.43
2022-12-11T06:46:12.703Z,-4.61
2022-12-11T06:48:40.489Z,-4.52
2022-12-11T06:51:09.005Z,-4.47
2022-12-11T06:53:36.377Z,-4.60
2022-12-11T06:56:05.098Z,-4.62
2022-12-11T06:58:36.090Z,-4.53
2022-12-11T07:01:04.152Z,-4.64
2022-12-11T07:03:31.401Z,-4.50
2022-12-11T07:06:00.799Z,-4.63
2022-12-11T07:08:28.254Z,-4.47
2022-12-11T07:10:55.357Z,-4.53
2022-12-11T07:13:22.433Z,-4.69
2022-12-11T07:15:50.845Z,-4.71
2022-12-11T07:18:17.950Z,-4.64
2022-12-11T07:20:45.034Z,-4.58
2022-12-11T07:23:12.117Z,-4.71
2022-12-11T07:25:39.265Z,-4.72
2022-12-11T07:28:06.326Z,-4.58
2022-12-11T07:30:33.402Z,-4.62
2022-12-11T07:33:01.861Z,-4.66
2022-12-11T07:35:28.979Z,-4.66
2022-12-11T07:37:56.060Z,-4.62
2022-12-11T07:40:23.116Z,-4.60
2022-12-11T07:42:50.169Z,-4.67
2022-12-11T07:45:17.384Z,-4.71
2022-12-11T07:47:44.441Z,-4.80
2022-12-11T07:50:12.941Z,-4.73
2022-12-11T07:52:40.010Z,-4.72
2022-12-11T07:55:07.391Z,-4.79
2022-12-11T07:57:34.437Z,-4.64
2022-12-11T08:00:01.531Z,-4.80
2022-12-11T08:02:32.635Z,-4.79
2022-12-11T08:05:02.592Z,-4.86
2022-12-11T08:07:31.005Z,-4.79
2022-12-11T08:09:58.041Z,-4.77
2022-12-11T08:12:25.123Z,-4.68
2022-12-11T08:14:52.186Z,-4.70
2022-12-11T08:17:20.641Z,-4.75
2022-12-11T08:19:49.428Z,-4.68
2022-12-11T08:22:16.481Z,-4.61
2022-12-11T08:24:44.890Z,-4.54
2022-12-11T08:27:11.995Z,-4.61
2022-12-11T08:29:39.203Z,-4.66
2022-12-11T08:32:11.911Z,-4.65
2022-12-11T08:34:39.444Z,-4.53
2022-12-11T08:37:06.497Z,-4.50
2022-12-11T08:39:33.545Z,-4.59
2022-12-11T08:42:01.924Z,-4.64
2022-12-11T08:44:29.080Z,-4.47
2022-12-11T08:46:56.172Z,-4.51
2022-12-11T08:49:23.339Z,-4.67
2022-12-11T08:51:50.403Z,-4.65
2022-12-11T08:54:17.490Z,-4.56
2022-12-11T08:56:44.541Z,-4.45
2022-12-11T08:59:12.953Z,-4.40
2022-12-11T09:01:40.106Z,-4.26
2022-12-11T09:04:07.280Z,-4.23
2022-12-11T09:06:34.408Z,-4.16
2022-12-11T09:09:02.358Z,-4.07
2022-12-11T09:11:31.602Z,-4.19
2022-12-11T09:14:02.236Z,-4.26
2022-12-11T09:16:36.820Z,-4.03
2022-12-11T09:19:04.155Z,-4.16
2022-12-11T09:21:31.406Z,-4.14
2022-12-11T09:24:00.397Z,-4.51
2022-12-11T09:26:28.881Z,-4.36
2022-12-11T09:28:56.514Z,-4.23
2022-12-11T09:31:25.996Z,-4.24
2022-12-11T09:33:56.924Z,-4.19
2022-12-11T09:36:24.864Z,-4.15
2022-12-11T09:38:52.447Z,-3.98
2022-12-11T09:41:49.567Z,-3.99
2022-12-11T09:44:24.327Z,-4.00
2022-12-11T09:46:51.908Z,-4.04
2022-12-11T09:49:28.373Z,-4.08
2022-12-11T09:52:03.905Z,-3.97
2022-12-11T09:54:31.972Z,-3.96
2022-12-11T09:57:07.824Z,-3.93
2022-12-11T09:59:44.449Z,-3.92
2022-12-11T10:02:24.727Z,-4.00
2022-12-11T10:05:04.826Z,-4.04
2022-12-11T10:07:38.212Z,-3.92
2022-12-11T10:10:19.558Z,-3.86
2022-12-11T10:13:00.413Z,-3.56
2022-12-11T10:15:36.774Z,-3.58
2022-12-11T10:18:09.486Z,-3.80
2022-12-11T10:20:38.418Z,-3.68
2022-12-11T10:23:08.127Z,-3.64
2022-12-11T10:25:37.734Z,-3.81
2022-12-11T10:28:11.692Z,-3.83
2022-12-11T10:30:44.137Z,-3.83
2022-12-11T10:33:19.931Z,-3.67
2022-12-11T10:35:50.957Z,-3.61
2022-12-11T10:38:23.791Z,-3.67
2022-12-11T10:40:53.453Z,-3.81
2022-12-11T10:43:20.824Z,-3.64
2022-12-11T10:45:52.440Z,-3.46
2022-12-11T10:48:20.346Z,-3.43
2022-12-11T10:50:58.898Z,-3.34
2022-12-11T10:53:26.403Z,-3.40
2022-12-11T10:55:54.007Z,-3.42
2022-12-11T10:58:24.692Z,-3.50
2022-12-11T11:01:03.304Z,-3.43
2022-12-11T11:03:30.567Z,-3.49
2022-12-11T11:06:15.847Z,-3.63
2022-12-11T11:08:44.823Z,-3.69
2022-12-11T11:11:24.412Z,-3.66
2022-12-11T11:13:52.374Z,-3.66
2022-12-11T11:16:22.149Z,-3.53
2022-12-11T11:18:52.846Z,-3.60
2022-12-11T11:21:24.099Z,-3.69
2022-12-11T11:23:53.555Z,-3.45
2022-12-11T11:26:22.339Z,-3.65
2022-12-11T11:28:52.262Z,-3.47
2022-12-11T11:31:20.969Z,-3.53
2022-12-11T11:33:56.168Z,-3.48
2022-12-11T11:36:27.069Z,-3.59
2022-12-11T11:39:05.863Z,-3.50
2022-12-11T11:41:43.402Z,-3.51
2022-12-11T11:44:14.478Z,-3.64
2022-12-11T11:46:47.028Z,-3.89
2022-12-11T11:49:22.993Z,-3.86
2022-12-11T11:51:56.292Z,-3.68
2022-12-11T11:54:31.417Z,-3.66
2022-12-11T11:57:01.399Z,-3.73
2022-12-11T11:59:34.368Z,-3.68
2022-12-11T12:02:01.474Z,-3.52
2022-12-11T12:04:33.278Z,-3.56
2022-12-11T12:07:21.864Z,-3.41
2022-12-11T12:09:56.758Z,-3.33
2022-12-11T12:12:37.138Z,-3.20
2022-12-11T12:15:19.886Z,-3.49
2022-12-11T12:17:55.794Z,-3.61
2022-12-11T12:20:38.767Z,-3.64
2022-12-11T12:23:33.326Z,-3.62
2022-12-11T12:26:09.112Z,-3.63
2022-12-11T12:28:44.100Z,-3.69
2022-12-11T12:31:30.795Z,-3.75
2022-12-11T12:34:06.254Z,-3.86
2022-12-11T12:36:41.405Z,-3.94
2022-12-11T12:39:19.232Z,-3.88
2022-12-11T12:41:54.957Z,-4.13
2022-12-11T12:44:24.493Z,-4.06
2022-12-11T12:46:57.341Z,-4.07
2022-12-11T12:49:38.401Z,-4.08
2022-12-11T12:52:07.612Z,-3.96
2022-12-11T12:54:37.211Z,-3.92
2022-12-11T12:57:04.923Z,-4.02
2022-12-11T12:59:32.106Z,-4.06
2022-12-11T13:02:01.914Z,-4.00
2022-12-11T13:07:28.962Z,-4.03
2022-12-11T13:10:00.940Z,-4.12
2022-12-11T13:12:39.543Z,-4.07
2022-12-11T13:15:24.307Z,-4.11
2022-12-11T13:17:51.432Z,-4.21
2022-12-11T13:20:20.100Z,-4.24
2022-12-11T13:22:54.168Z,-4.23
2022-12-11T13:25:26.574Z,-4.27
2022-12-11T13:28:05.423Z,-4.17
2022-12-11T13:30:32.936Z,-4.17
2022-12-11T13:33:04.273Z,-4.17
2022-12-11T13:35:33.260Z,-4.13
2022-12-11T13:38:05.851Z,-4.12
2022-12-11T13:40:45.550Z,-4.22
2022-12-11T13:43:20.179Z,-4.23
2022-12-11T13:45:50.178Z,-4.21
2022-12-11T13:48:24.776Z,-4.23
2022-12-11T13:50:53.398Z,-4.34
2022-12-11T13:53:21.554Z,-4.40
2022-12-11T13:55:57.972Z,-4.37
2022-12-11T13:58:25.291Z,-4.18
2022-12-11T14:01:04.275Z,-4.40
2022-12-11T14:03:32.317Z,-4.37
2022-12-11T14:06:00.028Z,-4.49
2022-12-11T14:08:33.232Z,-4.40
2022-12-11T14:11:02.632Z,-4.36
2022-12-11T14:13:34.091Z,-4.31
2022-12-11T14:16:02.604Z,-4.36
2022-12-11T14:18:32.609Z,-4.38
2022-12-11T14:21:01.949Z,-4.27
2022-12-11T14:23:30.560Z,-4.30
2022-12-11T14:26:00.092Z,-4.41
2022-12-11T14:28:35.921Z,-4.33
2022-12-11T14:31:05.461Z,-4.41
2022-12-11T14:33:37.205Z,-4.53
2022-12-11T14:36:06.106Z,-4.53
2022-12-11T14:38:37.320Z,-4.45
2022-12-11T14:41:13.024Z,-4.46
2022-12-11T14:43:45.412Z,-4.44
2022-12-11T14:46:18.522Z,-4.54
2022-12-11T14:48:50.318Z,-4.56
2022-12-11T14:51:19.554Z,-4.40
2022-12-11T14:53:49.427Z,-4.51
2022-12-11T14:56:20.407Z,-4.53
2022-12-11T14:58:54.136Z,-4.50
2022-12-11T15:01:23.801Z,-4.41
2022-12-11T15:04:03.400Z,-4.39
2022-12-11T15:06:32.402Z,-4.32
2022-12-11T15:09:10.252Z,-4.45
2022-12-11T15:11:37.459Z,-4.31
2022-12-11T15:14:09.481Z,-4.49
2022-12-11T15:16:40.000Z,-4.60
2022-12-11T15:19:14.531Z,-4.66
2022-12-11T15:21:41.803Z,-4.66
2022-12-11T15:24:22.826Z,-4.63
2022-12-11T15:26:50.028Z,-4.69
2022-12-11T15:29:30.417Z,-4.70
2022-12-11T15:32:03.565Z,-4.66
2022-12-11T15:34:35.269Z,-4.70
2022-12-11T15:37:02.452Z,-4.74
2022-12-11T15:39:29.548Z,-4.60
2022-12-11T15:41:56.649Z,-4.60
2022-12-11T15:44:25.226Z,-4.54
2022-12-11T15:46:52.374Z,-4.54
2022-12-11T15:49:19.531Z,-4.44
2022-12-11T15:51:46.746Z,-4.58
2022-12-11T15:54:13.924Z,-4.62
2022-12-11T15:56:41.090Z,-4.70
2022-12-11T15:59:10.585Z,-4.73
2022-12-11T16:01:39.144Z,-4.64
2022-12-11T16:04:06.373Z,-4.64
2022-12-11T16:06:33.673Z,-4.62
2022-12-11T16:09:00.735Z,-4.64
2022-12-11T16:11:27.834Z,-4.50
2022-12-11T16:13:54.943Z,-4.51
2022-12-11T16:16:22.066Z,-4.44
2022-12-11T16:18:50.486Z,-4.53
2022-12-11T16:21:21.398Z,-4.57
2022-12-11T16:23:48.670Z,-4.49
2022-12-11T16:26:15.691Z,-4.46
2022-12-11T16:28:42.862Z,-4.63
2022-12-11T16:31:11.025Z,-4.61
2022-12-11T16:33:38.328Z,-4.56
2022-12-11T16:36:13.579Z,-4.49
2022-12-11T16:38:40.607Z,-4.51
2022-12-11T16:41:07.675Z,-4.51
2022-12-11T16:43:34.701Z,-4.56
2022-12-11T16:46:01.807Z,-4.59
2022-12-11T16:48:28.915Z,-4.50
2022-12-11T16:50:56.159Z,-4.51
2022-12-11T16:53:24.959Z,-4.58
2022-12-11T16:55:52.036Z,-4.54
2022-12-11T16:58:19.087Z,-4.59
2022-12-11T17:00:47.199Z,-4.60
2022-12-11T17:03:14.625Z,-4.63
2022-12-11T17:05:42.750Z,-4.67
2022-12-11T17:08:10.455Z,-4.73
2022-12-11T17:10:41.303Z,-4.68
2022-12-11T17:13:08.356Z,-4.70
2022-12-11T17:15:40.096Z,-4.64
2022-12-11T17:18:07.277Z,-4.67
2022-12-11T17:20:34.417Z,-4.49
2022-12-11T17:23:01.528Z,-4.54
2022-12-11T17:25:28.983Z,-4.48
2022-12-11T17:27:57.399Z,-4.55
2022-12-11T17:30:24.454Z,-4.47
2022-12-11T17:32:51.542Z,-4.60
2022-12-11T17:35:18.616Z,-4.58
2022-12-11T17:37:45.716Z,-4.46
2022-12-11T17:40:12.792Z,-4.51
2022-12-11T17:42:39.870Z,-4.59
2022-12-11T17:45:09.319Z,-4.50
2022-12-11T17:47:36.557Z,-4.56
2022-12-11T17:50:04.269Z,-4.55
2022-12-11T17:52:34.925Z,-4.57
2022-12-11T17:55:03.704Z,-4.61
2022-12-11T17:57:31.190Z,-4.62
2022-12-11T17:59:58.284Z,-4.54
2022-12-11T18:02:26.657Z,-4.60
2022-12-11T18:04:53.958Z,-4.55
2022-12-11T18:07:21.037Z,-4.49
2022-12-11T18:09:48.143Z,-4.49
2022-12-11T18:12:15.235Z,-4.54
2022-12-11T18:14:42.294Z,-4.62
2022-12-11T18:17:09.347Z,-4.57
2022-12-11T18:19:41.458Z,-4.58
2022-12-11T18:22:12.921Z,-4.59
2022-12-11T18:24:40.045Z,-4.57
2022-12-11T18:27:07.118Z,-4.50
2022-12-11T18:29:34.184Z,-4.55
2022-12-11T18:32:01.376Z,-4.57
2022-12-11T18:34:28.494Z,-4.63
2022-12-11T18:36:56.972Z,-4.55
2022-12-11T18:39:24.226Z,-4.57
2022-12-11T18:42:23.998Z,-4.35
2022-12-11T18:44:38.488Z,-4.53
2022-12-11T18:47:05.593Z,-4.66
2022-12-11T18:49:32.704Z,-4.67
2022-12-11T18:52:01.141Z,-4.58
2022-12-11T18:54:28.223Z,-4.57
2022-12-11T18:56:55.291Z,-4.62
2022-12-11T18:59:25.070Z,-4.56
2022-12-11T19:01:52.210Z,-4.44
2022-12-11T19:04:19.284Z,-4.54
2022-12-11T19:06:46.899Z,-4.66
2022-12-11T19:09:15.366Z,-4.56
2022-12-11T19:11:42.450Z,-4.55
2022-12-11T19:14:10.734Z,-4.52
2022-12-11T19:16:39.966Z,-4.57
2022-12-11T19:19:09.343Z,-4.44
2022-12-11T19:21:37.728Z,-4.58
2022-12-11T19:24:06.088Z,-4.56
2022-12-11T19:26:35.225Z,-4.57
2022-12-11T19:29:02.537Z,-4.62
2022-12-11T19:31:31.492Z,-4.57
2022-12-11T19:33:59.375Z,-4.45
2022-12-11T19:36:29.507Z,-4.54
2022-12-11T19:39:01.519Z,-4.63
2022-12-11T19:41:30.774Z,-4.67
2022-12-11T19:43:59.385Z,-4.63
2022-12-11T19:46:27.902Z,-4.67
2022-12-11T19:48:56.366Z,-4.63
2022-12-11T19:51:26.586Z,-4.64
2022-12-11T19:53:53.973Z,-4.55
2022-12-11T19:56:21.077Z,-4.53
2022-12-11T19:58:48.593Z,-4.46
2022-12-11T20:01:20.901Z,-4.61
2022-12-11T20:03:48.146Z,-4.67
2022-12-11T20:06:15.214Z,-4.65
2022-12-11T20:08:45.244Z,-4.67
2022-12-11T20:11:18.053Z,-4.51
2022-12-11T20:13:46.406Z,-4.65
2022-12-11T20:16:14.307Z,-4.71
2022-12-11T20:18:42.846Z,-4.82
2022-12-11T20:21:13.590Z,-4.90
2022-12-11T20:23:40.698Z,-4.80
2022-12-11T20:26:09.248Z,-4.86
2022-12-11T20:28:36.526Z,-4.66
2022-12-11T20:31:04.622Z,-4.77
2022-12-11T20:33:31.669Z,-4.79
2022-12-11T20:36:00.100Z,-4.82
2022-12-11T20:38:32.801Z,-4.73
2022-12-11T20:41:01.652Z,-4.74
2022-12-11T20:43:28.738Z,-4.72
2022-12-11T20:45:55.886Z,-4.88
2022-12-11T20:48:23.261Z,-4.77
2022-12-11T20:50:50.321Z,-4.82
2022-12-11T20:53:19.745Z,-4.83
2022-12-11T20:55:46.836Z,-4.83
2022-12-11T20:58:13.918Z,-4.72
2022-12-11T21:00:41.163Z,-4.71
2022-12-11T21:03:08.290Z,-4.76
2022-12-11T21:05:40.440Z,-4.75
2022-12-11T21:08:07.830Z,-4.90
2022-12-11T21:10:36.550Z,-4.85
2022-12-11T21:13:03.637Z,-4.79
2022-12-11T21:15:30.733Z,-4.81
2022-12-11T21:17:57.803Z,-4.88
2022-12-11T21:20:25.461Z,-4.89
2022-12-11T21:22:52.530Z,-4.89
2022-12-11T21:25:19.691Z,-4.86
2022-12-11T21:27:48.125Z,-4.79
2022-12-11T21:30:15.385Z,-4.83
2022-12-11T21:32:42.555Z,-4.91
2022-12-11T21:35:10.826Z,-4.88
2022-12-11T21:37:38.275Z,-4.88
2022-12-11T21:40:06.512Z,-4.93
2022-12-11T21:42:33.594Z,-4.91
2022-12-11T21:47:49.021Z,-4.92
2022-12-11T21:50:16.411Z,-4.96
2022-12-11T21:52:43.530Z,-4.93
2022-12-11T21:55:11.385Z,-4.98
2022-12-11T21:57:38.609Z,-4.90
2022-12-11T22:00:08.332Z,-4.91
2022-12-11T22:02:40.642Z,-5.03
2022-12-11T22:05:09.339Z,-5.05
2022-12-11T22:07:36.604Z,-5.08
2022-12-11T22:10:04.757Z,-5.08
2022-12-11T22:12:31.878Z,-4.99
2022-12-11T22:14:59.071Z,-4.91
2022-12-11T22:17:27.504Z,-4.92
2022-12-11T22:19:54.555Z,-4.98
2022-12-11T22:22:21.606Z,-4.92
2022-12-11T22:24:48.660Z,-4.87
2022-12-11T22:27:19.117Z,-4.77
2022-12-11T22:29:50.451Z,-4.79
2022-12-11T22:32:17.549Z,-4.79
2022-12-11T22:34:45.963Z,-4.80
2022-12-11T22:37:13.013Z,-4.84
2022-12-11T22:39:40.093Z,-4.78
2022-12-11T22:42:07.310Z,-4.81
2022-12-11T22:44:34.359Z,-4.89
2022-12-11T22:47:01.421Z,-4.91
2022-12-11T22:49:28.477Z,-4.89
2022-12-11T22:51:56.882Z,-4.84
2022-12-11T22:54:24.604Z,-4.78
2022-12-11T22:56:51.674Z,-4.81
2022-12-11T22:59:18.740Z,-4.76
2022-12-11T23:01:45.829Z,-4.76
2022-12-11T23:04:12.900Z,-4.84
2022-12-11T23:06:39.952Z,-4.90
2022-12-11T23:09:08.389Z,-4.79
2022-12-11T23:11:36.876Z,-4.83
2022-12-11T23:14:05.678Z,-4.82
2022-12-11T23:16:32.941Z,-4.79
2022-12-11T23:19:00.197Z,-4.72
2022-12-11T23:21:28.726Z,-4.78
2022-12-11T23:23:56.570Z,-4.73
2022-12-11T23:26:25.445Z,-4.74
2022-12-11T23:28:53.437Z,-4.70
2022-12-11T23:31:21.033Z,-4.62
2022-12-11T23:33:48.112Z,-4.52
2022-12-11T23:36:15.358Z,-4.54
2022-12-11T23:38:42.623Z,-4.53
2022-12-11T23:41:13.606Z,-4.62
2022-12-11T23:43:42.605Z,-4.44
2022-12-11T23:46:13.086Z,-4.58
2022-12-11T23:48:40.424Z,-4.46
2022-12-11T23:51:09.226Z,-4.65
2022-12-11T23:53:36.263Z,-4.67
2022-12-11T23:56:05.294Z,-4.66
2022-12-11T23:58:32.529Z,-4.66
